sensor_id;sensor_type;location;lat;lon;timestamp;P1;durP1;ratioP1;P2;durP2;ratioP2
32752;SDS011;19121;52.428;10.816;2022-08-19T00:01:48;3.97;;;3.58;;
32752;SDS011;19121;52.428;10.816;2022-08-19T00:04:16;4.35;;;3.88;;
32752;SDS011;19121;52.428;10.816;2022-08-19T00:06:43;4.80;;;4.30;;
32752;SDS011;19121;52.428;10.816;2022-08-19T00:09:10;4.43;;;4.03;;
32752;SDS011;19121;52.428;10.816;2022-08-19T00:11:38;4.55;;;4.10;;
32752;SDS011;19121;52.428;10.816;2022-08-19T00:14:07;3.70;;;3.40;;
32752;SDS011;19121;52.428;10.816;2022-08-19T00:16:38;4.45;;;4.05;;
32752;SDS011;19121;52.428;10.816;2022-08-19T00:19:06;5.55;;;4.47;;
32752;SDS011;19121;52.428;10.816;2022-08-19T00:21:32;4.63;;;4.22;;
32752;SDS011;19121;52.428;10.816;2022-08-19T00:24:00;3.97;;;3.63;;
32752;SDS011;19121;52.428;10.816;2022-08-19T00:26:26;4.43;;;4.03;;
32752;SDS011;19121;52.428;10.816;2022-08-19T00:28:53;5.43;;;4.82;;
32752;SDS011;19121;52.428;10.816;2022-08-19T00:31:19;4.35;;;3.95;;
32752;SDS011;19121;52.428;10.816;2022-08-19T00:33:45;3.97;;;3.65;;
32752;SDS011;19121;52.428;10.816;2022-08-19T00:36:12;4.72;;;4.20;;
32752;SDS011;19121;52.428;10.816;2022-08-19T00:38:38;4.88;;;4.43;;
32752;SDS011;19121;52.428;10.816;2022-08-19T00:41:08;4.45;;;4.05;;
32752;SDS011;19121;52.428;10.816;2022-08-19T00:43:36;4.43;;;4.03;;
32752;SDS011;19121;52.428;10.816;2022-08-19T00:46:03;3.70;;;3.40;;
32752;SDS011;19121;52.428;10.816;2022-08-19T00:48:29;5.18;;;4.38;;
32752;SDS011;19121;52.428;10.816;2022-08-19T00:50:58;5.50;;;4.32;;
32752;SDS011;19121;52.428;10.816;2022-08-19T00:53:25;4.00;;;3.70;;
32752;SDS011;19121;52.428;10.816;2022-08-19T00:55:53;4.70;;;4.28;;
32752;SDS011;19121;52.428;10.816;2022-08-19T00:58:22;4.03;;;3.63;;
32752;SDS011;19121;52.428;10.816;2022-08-19T01:00:52;4.22;;;3.83;;
32752;SDS011;19121;52.428;10.816;2022-08-19T01:03:19;4.18;;;3.78;;
32752;SDS011;19121;52.428;10.816;2022-08-19T01:05:46;4.63;;;3.80;;
32752;SDS011;19121;52.428;10.816;2022-08-19T01:08:13;5.00;;;4.18;;
32752;SDS011;19121;52.428;10.816;2022-08-19T01:10:54;5.35;;;3.85;;
32752;SDS011;19121;52.428;10.816;2022-08-19T01:13:23;3.83;;;3.42;;
32752;SDS011;19121;52.428;10.816;2022-08-19T01:16:00;4.35;;;3.95;;
32752;SDS011;19121;52.428;10.816;2022-08-19T01:18:29;3.97;;;3.58;;
32752;SDS011;19121;52.428;10.816;2022-08-19T01:20:58;3.65;;;3.33;;
32752;SDS011;19121;52.428;10.816;2022-08-19T01:23:26;4.32;;;3.92;;
32752;SDS011;19121;52.428;10.816;2022-08-19T01:26:07;3.17;;;2.95;;
32752;SDS011;19121;52.428;10.816;2022-08-19T01:28:36;4.50;;;4.10;;
32752;SDS011;19121;52.428;10.816;2022-08-19T01:31:02;4.35;;;3.53;;
32752;SDS011;19121;52.428;10.816;2022-08-19T01:33:27;3.83;;;3.45;;
32752;SDS011;19121;52.428;10.816;2022-08-19T01:36:03;4.05;;;3.75;;
32752;SDS011;19121;52.428;10.816;2022-08-19T01:38:37;3.78;;;3.35;;
32752;SDS011;19121;52.428;10.816;2022-08-19T01:41:04;4.32;;;3.92;;
32752;SDS011;19121;52.428;10.816;2022-08-19T01:43:30;3.65;;;3.35;;
32752;SDS011;19121;52.428;10.816;2022-08-19T01:45:57;4.35;;;3.80;;
32752;SDS011;19121;52.428;10.816;2022-08-19T01:48:22;3.83;;;3.53;;
32752;SDS011;19121;52.428;10.816;2022-08-19T01:50:48;4.10;;;3.70;;
32752;SDS011;19121;52.428;10.816;2022-08-19T01:53:14;3.35;;;3.05;;
32752;SDS011;19121;52.428;10.816;2022-08-19T01:55:40;3.47;;;3.03;;
32752;SDS011;19121;52.428;10.816;2022-08-19T01:58:11;4.75;;;4.35;;
32752;SDS011;19121;52.428;10.816;2022-08-19T02:00:39;3.92;;;3.60;;
32752;SDS011;19121;52.428;10.816;2022-08-19T02:03:06;3.72;;;3.40;;
32752;SDS011;19121;52.428;10.816;2022-08-19T02:05:31;3.60;;;3.28;;
32752;SDS011;19121;52.428;10.816;2022-08-19T02:07:57;3.92;;;3.53;;
32752;SDS011;19121;52.428;10.816;2022-08-19T02:10:23;3.88;;;3.47;;
32752;SDS011;19121;52.428;10.816;2022-08-19T02:12:49;4.15;;;3.75;;
32752;SDS011;19121;52.428;10.816;2022-08-19T02:15:16;4.00;;;3.60;;
32752;SDS011;19121;52.428;10.816;2022-08-19T02:17:44;4.07;;;3.72;;
32752;SDS011;19121;52.428;10.816;2022-08-19T02:20:10;4.32;;;3.55;;
32752;SDS011;19121;52.428;10.816;2022-08-19T02:22:36;3.83;;;3.45;;
32752;SDS011;19121;52.428;10.816;2022-08-19T02:25:02;5.72;;;3.85;;
32752;SDS011;19121;52.428;10.816;2022-08-19T02:27:29;3.58;;;3.20;;
32752;SDS011;19121;52.428;10.816;2022-08-19T02:29:54;4.10;;;3.78;;
32752;SDS011;19121;52.428;10.816;2022-08-19T02:32:20;4.07;;;3.70;;
32752;SDS011;19121;52.428;10.816;2022-08-19T02:34:46;4.15;;;3.05;;
32752;SDS011;19121;52.428;10.816;2022-08-19T02:37:12;4.35;;;3.92;;
32752;SDS011;19121;52.428;10.816;2022-08-19T02:39:58;3.55;;;3.25;;
32752;SDS011;19121;52.428;10.816;2022-08-19T02:42:24;5.40;;;4.80;;
32752;SDS011;19121;52.428;10.816;2022-08-19T02:44:49;3.58;;;3.28;;
32752;SDS011;19121;52.428;10.816;2022-08-19T02:47:15;3.47;;;3.17;;
32752;SDS011;19121;52.428;10.816;2022-08-19T02:49:41;3.75;;;3.40;;
32752;SDS011;19121;52.428;10.816;2022-08-19T02:52:06;3.53;;;3.22;;
32752;SDS011;19121;52.428;10.816;2022-08-19T02:54:32;4.00;;;3.60;;
32752;SDS011;19121;52.428;10.816;2022-08-19T02:56:58;4.28;;;3.88;;
32752;SDS011;19121;52.428;10.816;2022-08-19T02:59:23;3.55;;;3.05;;
32752;SDS011;19121;52.428;10.816;2022-08-19T03:01:51;3.55;;;3.25;;
32752;SDS011;19121;52.428;10.816;2022-08-19T03:04:17;3.90;;;3.50;;
32752;SDS011;19121;52.428;10.816;2022-08-19T03:06:43;3.55;;;3.25;;
32752;SDS011;19121;52.428;10.816;2022-08-19T03:09:11;3.20;;;2.90;;
32752;SDS011;19121;52.428;10.816;2022-08-19T03:11:37;3.22;;;2.92;;
32752;SDS011;19121;52.428;10.816;2022-08-19T03:14:04;4.65;;;3.35;;
32752;SDS011;19121;52.428;10.816;2022-08-19T03:16:32;3.70;;;3.17;;
32752;SDS011;19121;52.428;10.816;2022-08-19T03:19:00;3.47;;;3.17;;
32752;SDS011;19121;52.428;10.816;2022-08-19T03:21:27;4.40;;;4.00;;
32752;SDS011;19121;52.428;10.816;2022-08-19T03:23:55;3.47;;;3.17;;
32752;SDS011;19121;52.428;10.816;2022-08-19T03:26:22;3.63;;;3.30;;
32752;SDS011;19121;52.428;10.816;2022-08-19T03:28:48;3.40;;;3.10;;
32752;SDS011;19121;52.428;10.816;2022-08-19T03:31:14;4.13;;;3.72;;
32752;SDS011;19121;52.428;10.816;2022-08-19T03:33:42;3.28;;;2.97;;
32752;SDS011;19121;52.428;10.816;2022-08-19T03:36:09;3.80;;;3.33;;
32752;SDS011;19121;52.428;10.816;2022-08-19T03:38:38;4.77;;;4.30;;
32752;SDS011;19121;52.428;10.816;2022-08-19T03:41:08;3.15;;;2.85;;
32752;SDS011;19121;52.428;10.816;2022-08-19T03:43:35;3.92;;;3.28;;
32752;SDS011;19121;52.428;10.816;2022-08-19T03:46:10;4.97;;;4.47;;
32752;SDS011;19121;52.428;10.816;2022-08-19T03:48:38;4.18;;;3.78;;
32752;SDS011;19121;52.428;10.816;2022-08-19T03:51:05;3.45;;;3.10;;
32752;SDS011;19121;52.428;10.816;2022-08-19T03:53:31;3.45;;;3.05;;
32752;SDS011;19121;52.428;10.816;2022-08-19T03:55:58;3.53;;;3.22;;
32752;SDS011;19121;52.428;10.816;2022-08-19T03:58:27;3.85;;;3.40;;
32752;SDS011;19121;52.428;10.816;2022-08-19T04:00:55;3.47;;;3.17;;
32752;SDS011;19121;52.428;10.816;2022-08-19T04:03:21;3.35;;;2.97;;
32752;SDS011;19121;52.428;10.816;2022-08-19T04:05:47;3.72;;;3.42;;
32752;SDS011;19121;52.428;10.816;2022-08-19T04:08:13;4.07;;;3.67;;
32752;SDS011;19121;52.428;10.816;2022-08-19T04:10:43;3.45;;;3.15;;
32752;SDS011;19121;52.428;10.816;2022-08-19T04:13:09;3.75;;;3.08;;
32752;SDS011;19121;52.428;10.816;2022-08-19T04:15:38;3.45;;;3.15;;
32752;SDS011;19121;52.428;10.816;2022-08-19T04:18:06;3.30;;;3.00;;
32752;SDS011;19121;52.428;10.816;2022-08-19T04:20:39;3.47;;;3.08;;
32752;SDS011;19121;52.428;10.816;2022-08-19T04:23:05;4.15;;;3.45;;
32752;SDS011;19121;52.428;10.816;2022-08-19T04:25:35;4.20;;;3.40;;
32752;SDS011;19121;52.428;10.816;2022-08-19T04:28:02;3.83;;;3.42;;
32752;SDS011;19121;52.428;10.816;2022-08-19T04:30:28;3.88;;;3.55;;
32752;SDS011;19121;52.428;10.816;2022-08-19T04:32:53;3.50;;;3.20;;
32752;SDS011;19121;52.428;10.816;2022-08-19T04:35:19;3.35;;;3.05;;
32752;SDS011;19121;52.428;10.816;2022-08-19T04:37:44;3.72;;;3.42;;
32752;SDS011;19121;52.428;10.816;2022-08-19T04:40:10;4.55;;;3.35;;
32752;SDS011;19121;52.428;10.816;2022-08-19T04:42:54;3.95;;;3.33;;
32752;SDS011;19121;52.428;10.816;2022-08-19T04:45:20;3.90;;;2.90;;
32752;SDS011;19121;52.428;10.816;2022-08-19T04:47:45;3.42;;;3.13;;
32752;SDS011;19121;52.428;10.816;2022-08-19T04:50:11;3.15;;;2.72;;
32752;SDS011;19121;52.428;10.816;2022-08-19T04:52:37;3.25;;;2.88;;
32752;SDS011;19121;52.428;10.816;2022-08-19T04:55:08;3.15;;;2.90;;
32752;SDS011;19121;52.428;10.816;2022-08-19T04:57:34;3.97;;;3.58;;
32752;SDS011;19121;52.428;10.816;2022-08-19T05:00:00;2.95;;;2.65;;
32752;SDS011;19121;52.428;10.816;2022-08-19T05:02:25;3.17;;;2.92;;
32752;SDS011;19121;52.428;10.816;2022-08-19T05:04:56;4.53;;;3.30;;
32752;SDS011;19121;52.428;10.816;2022-08-19T05:07:24;2.95;;;2.65;;
32752;SDS011;19121;52.428;10.816;2022-08-19T05:09:50;3.70;;;3.40;;
32752;SDS011;19121;52.428;10.816;2022-08-19T05:12:15;3.05;;;2.83;;
32752;SDS011;19121;52.428;10.816;2022-08-19T05:14:41;3.90;;;2.80;;
32752;SDS011;19121;52.428;10.816;2022-08-19T05:17:06;3.40;;;3.10;;
32752;SDS011;19121;52.428;10.816;2022-08-19T05:19:32;3.33;;;3.03;;
32752;SDS011;19121;52.428;10.816;2022-08-19T05:22:16;3.88;;;3.40;;
32752;SDS011;19121;52.428;10.816;2022-08-19T05:24:57;3.40;;;3.10;;
32752;SDS011;19121;52.428;10.816;2022-08-19T05:27:22;3.97;;;3.67;;
32752;SDS011;19121;52.428;10.816;2022-08-19T05:29:48;2.92;;;2.72;;
32752;SDS011;19121;52.428;10.816;2022-08-19T05:32:13;3.33;;;3.03;;
32752;SDS011;19121;52.428;10.816;2022-08-19T05:34:39;3.20;;;3.00;;
32752;SDS011;19121;52.428;10.816;2022-08-19T05:37:04;2.97;;;2.70;;
32752;SDS011;19121;52.428;10.816;2022-08-19T05:39:33;4.75;;;3.58;;
32752;SDS011;19121;52.428;10.816;2022-08-19T05:42:02;3.92;;;2.97;;
32752;SDS011;19121;52.428;10.816;2022-08-19T05:44:32;6.53;;;3.63;;
32752;SDS011;19121;52.428;10.816;2022-08-19T05:46:59;4.00;;;3.60;;
32752;SDS011;19121;52.428;10.816;2022-08-19T05:49:28;3.35;;;3.05;;
32752;SDS011;19121;52.428;10.816;2022-08-19T05:51:54;4.55;;;4.10;;
32752;SDS011;19121;52.428;10.816;2022-08-19T05:54:21;4.82;;;3.38;;
32752;SDS011;19121;52.428;10.816;2022-08-19T05:56:48;4.30;;;3.58;;
32752;SDS011;19121;52.428;10.816;2022-08-19T05:59:15;4.45;;;3.35;;
32752;SDS011;19121;52.428;10.816;2022-08-19T06:01:42;6.68;;;3.47;;
32752;SDS011;19121;52.428;10.816;2022-08-19T06:04:10;5.03;;;3.83;;
32752;SDS011;19121;52.428;10.816;2022-08-19T06:06:40;5.43;;;3.30;;
32752;SDS011;19121;52.428;10.816;2022-08-19T06:09:07;4.95;;;3.85;;
32752;SDS011;19121;52.428;10.816;2022-08-19T06:11:37;7.78;;;3.90;;
32752;SDS011;19121;52.428;10.816;2022-08-19T06:14:06;4.28;;;3.88;;
32752;SDS011;19121;52.428;10.816;2022-08-19T06:16:37;4.90;;;3.80;;
32752;SDS011;19121;52.428;10.816;2022-08-19T06:19:04;5.30;;;3.58;;
32752;SDS011;19121;52.428;10.816;2022-08-19T06:21:33;7.97;;;4.05;;
32752;SDS011;19121;52.428;10.816;2022-08-19T06:24:01;9.60;;;4.85;;
32752;SDS011;19121;52.428;10.816;2022-08-19T06:26:28;16.88;;;4.57;;
32752;SDS011;19121;52.428;10.816;2022-08-19T06:28:54;20.25;;;5.65;;
32752;SDS011;19121;52.428;10.816;2022-08-19T06:31:21;20.00;;;7.10;;
32752;SDS011;19121;52.428;10.816;2022-08-19T06:33:51;24.10;;;7.10;;
32752;SDS011;19121;52.428;10.816;2022-08-19T06:36:18;20.50;;;6.75;;
32752;SDS011;19121;52.428;10.816;2022-08-19T06:39:09;18.10;;;6.38;;
32752;SDS011;19121;52.428;10.816;2022-08-19T06:41:40;26.85;;;8.70;;
32752;SDS011;19121;52.428;10.816;2022-08-19T06:44:07;26.42;;;6.50;;
32752;SDS011;19121;52.428;10.816;2022-08-19T06:46:34;14.82;;;6.25;;
32752;SDS011;19121;52.428;10.816;2022-08-19T06:49:01;21.48;;;6.50;;
32752;SDS011;19121;52.428;10.816;2022-08-19T06:51:26;22.73;;;6.65;;
32752;SDS011;19121;52.428;10.816;2022-08-19T06:53:53;26.75;;;9.02;;
32752;SDS011;19121;52.428;10.816;2022-08-19T06:56:20;20.45;;;6.13;;
32752;SDS011;19121;52.428;10.816;2022-08-19T06:58:49;19.30;;;7.35;;
32752;SDS011;19121;52.428;10.816;2022-08-19T07:01:17;11.18;;;5.40;;
32752;SDS011;19121;52.428;10.816;2022-08-19T07:03:43;23.05;;;6.75;;
32752;SDS011;19121;52.428;10.816;2022-08-19T07:06:11;29.38;;;8.40;;
32752;SDS011;19121;52.428;10.816;2022-08-19T07:08:40;9.98;;;5.82;;
32752;SDS011;19121;52.428;10.816;2022-08-19T07:11:08;14.18;;;5.18;;
32752;SDS011;19121;52.428;10.816;2022-08-19T07:13:35;10.88;;;5.85;;
32752;SDS011;19121;52.428;10.816;2022-08-19T07:16:03;8.85;;;5.32;;
32752;SDS011;19121;52.428;10.816;2022-08-19T07:18:32;6.90;;;5.50;;
32752;SDS011;19121;52.428;10.816;2022-08-19T07:21:02;8.70;;;5.70;;
32752;SDS011;19121;52.428;10.816;2022-08-19T07:23:32;8.05;;;5.35;;
32752;SDS011;19121;52.428;10.816;2022-08-19T07:25:58;8.50;;;5.22;;
32752;SDS011;19121;52.428;10.816;2022-08-19T07:28:29;10.07;;;4.68;;
32752;SDS011;19121;52.428;10.816;2022-08-19T07:30:54;14.20;;;5.63;;
32752;SDS011;19121;52.428;10.816;2022-08-19T07:33:20;8.23;;;5.15;;
32752;SDS011;19121;52.428;10.816;2022-08-19T07:35:45;9.18;;;6.15;;
32752;SDS011;19121;52.428;10.816;2022-08-19T07:38:11;7.55;;;6.32;;
32752;SDS011;19121;52.428;10.816;2022-08-19T07:40:36;9.55;;;6.25;;
32752;SDS011;19121;52.428;10.816;2022-08-19T07:43:02;8.32;;;6.75;;
32752;SDS011;19121;52.428;10.816;2022-08-19T07:45:27;8.23;;;5.68;;
32752;SDS011;19121;52.428;10.816;2022-08-19T07:47:53;8.73;;;5.20;;
32752;SDS011;19121;52.428;10.816;2022-08-19T07:50:20;10.52;;;5.45;;
32752;SDS011;19121;52.428;10.816;2022-08-19T07:52:46;8.82;;;5.07;;
32752;SDS011;19121;52.428;10.816;2022-08-19T07:55:14;9.02;;;4.82;;
32752;SDS011;19121;52.428;10.816;2022-08-19T07:57:41;8.40;;;4.60;;
32752;SDS011;19121;52.428;10.816;2022-08-19T08:00:07;8.70;;;4.45;;
32752;SDS011;19121;52.428;10.816;2022-08-19T08:02:33;10.02;;;4.43;;
32752;SDS011;19121;52.428;10.816;2022-08-19T08:04:58;9.35;;;4.35;;
32752;SDS011;19121;52.428;10.816;2022-08-19T08:07:42;7.85;;;4.05;;
32752;SDS011;19121;52.428;10.816;2022-08-19T08:10:26;10.88;;;5.68;;
32752;SDS011;19121;52.428;10.816;2022-08-19T08:12:51;9.95;;;5.72;;
32752;SDS011;19121;52.428;10.816;2022-08-19T08:15:20;7.40;;;3.95;;
32752;SDS011;19121;52.428;10.816;2022-08-19T08:17:45;8.40;;;4.70;;
32752;SDS011;19121;52.428;10.816;2022-08-19T08:20:11;8.77;;;4.07;;
32752;SDS011;19121;52.428;10.816;2022-08-19T08:22:42;10.65;;;5.55;;
32752;SDS011;19121;52.428;10.816;2022-08-19T08:25:27;10.98;;;4.65;;
32752;SDS011;19121;52.428;10.816;2022-08-19T08:27:52;9.15;;;4.82;;
32752;SDS011;19121;52.428;10.816;2022-08-19T08:30:20;6.07;;;4.47;;
32752;SDS011;19121;52.428;10.816;2022-08-19T08:32:47;5.35;;;3.85;;
32752;SDS011;19121;52.428;10.816;2022-08-19T08:35:14;6.28;;;3.67;;
32752;SDS011;19121;52.428;10.816;2022-08-19T08:37:41;6.20;;;3.60;;
32752;SDS011;19121;52.428;10.816;2022-08-19T08:40:32;8.35;;;4.38;;
32752;SDS011;19121;52.428;10.816;2022-08-19T08:43:22;7.72;;;4.10;;
32752;SDS011;19121;52.428;10.816;2022-08-19T08:45:59;4.80;;;3.38;;
32752;SDS011;19121;52.428;10.816;2022-08-19T08:48:36;6.57;;;4.22;;
32752;SDS011;19121;52.428;10.816;2022-08-19T08:51:07;4.30;;;3.85;;
32752;SDS011;19121;52.428;10.816;2022-08-19T08:53:40;5.00;;;4.30;;
32752;SDS011;19121;52.428;10.816;2022-08-19T08:56:07;7.25;;;3.85;;
32752;SDS011;19121;52.428;10.816;2022-08-19T08:58:48;8.02;;;4.10;;
32752;SDS011;19121;52.428;10.816;2022-08-19T09:01:25;8.13;;;5.13;;
32752;SDS011;19121;52.428;10.816;2022-08-19T09:03:52;9.10;;;3.97;;
32752;SDS011;19121;52.428;10.816;2022-08-19T09:06:21;6.70;;;4.00;;
32752;SDS011;19121;52.428;10.816;2022-08-19T09:09:23;4.82;;;3.90;;
32752;SDS011;19121;52.428;10.816;2022-08-19T09:11:58;10.38;;;4.80;;
32752;SDS011;19121;52.428;10.816;2022-08-19T09:14:50;6.15;;;4.45;;
32752;SDS011;19121;52.428;10.816;2022-08-19T09:17:21;8.85;;;4.50;;
32752;SDS011;19121;52.428;10.816;2022-08-19T09:20:00;8.00;;;4.45;;
32752;SDS011;19121;52.428;10.816;2022-08-19T09:22:31;8.32;;;4.47;;
32752;SDS011;19121;52.428;10.816;2022-08-19T09:24:57;9.02;;;4.32;;
32752;SDS011;19121;52.428;10.816;2022-08-19T09:27:23;9.48;;;4.45;;
32752;SDS011;19121;52.428;10.816;2022-08-19T09:29:50;8.23;;;4.15;;
32752;SDS011;19121;52.428;10.816;2022-08-19T09:32:17;7.72;;;5.05;;
32752;SDS011;19121;52.428;10.816;2022-08-19T09:34:43;6.55;;;3.97;;
32752;SDS011;19121;52.428;10.816;2022-08-19T09:37:08;5.65;;;4.47;;
32752;SDS011;19121;52.428;10.816;2022-08-19T09:39:34;6.57;;;4.40;;
32752;SDS011;19121;52.428;10.816;2022-08-19T09:42:00;6.85;;;4.03;;
32752;SDS011;19121;52.428;10.816;2022-08-19T09:44:25;7.68;;;4.40;;
32752;SDS011;19121;52.428;10.816;2022-08-19T09:46:51;5.20;;;4.57;;
32752;SDS011;19121;52.428;10.816;2022-08-19T09:49:17;4.00;;;3.30;;
32752;SDS011;19121;52.428;10.816;2022-08-19T09:51:44;7.75;;;4.72;;
32752;SDS011;19121;52.428;10.816;2022-08-19T09:54:14;4.75;;;3.95;;
32752;SDS011;19121;52.428;10.816;2022-08-19T09:56:39;5.13;;;4.10;;
32752;SDS011;19121;52.428;10.816;2022-08-19T09:59:05;4.70;;;3.60;;
32752;SDS011;19121;52.428;10.816;2022-08-19T10:01:30;6.13;;;4.00;;
32752;SDS011;19121;52.428;10.816;2022-08-19T10:03:57;5.53;;;4.00;;
32752;SDS011;19121;52.428;10.816;2022-08-19T10:06:24;6.40;;;4.60;;
32752;SDS011;19121;52.428;10.816;2022-08-19T10:08:51;5.55;;;4.03;;
32752;SDS011;19121;52.428;10.816;2022-08-19T10:11:18;11.20;;;4.70;;
32752;SDS011;19121;52.428;10.816;2022-08-19T10:13:44;5.45;;;4.40;;
32752;SDS011;19121;52.428;10.816;2022-08-19T10:16:12;7.18;;;4.30;;
32752;SDS011;19121;52.428;10.816;2022-08-19T10:18:43;6.75;;;4.32;;
32752;SDS011;19121;52.428;10.816;2022-08-19T10:21:13;8.30;;;5.63;;
32752;SDS011;19121;52.428;10.816;2022-08-19T10:23:48;11.27;;;5.53;;
32752;SDS011;19121;52.428;10.816;2022-08-19T10:26:22;6.95;;;4.80;;
32752;SDS011;19121;52.428;10.816;2022-08-19T10:28:49;9.57;;;5.43;;
32752;SDS011;19121;52.428;10.816;2022-08-19T10:31:17;8.68;;;5.20;;
32752;SDS011;19121;52.428;10.816;2022-08-19T10:33:45;9.32;;;5.18;;
32752;SDS011;19121;52.428;10.816;2022-08-19T10:36:16;9.27;;;4.43;;
32752;SDS011;19121;52.428;10.816;2022-08-19T10:38:44;10.35;;;5.45;;
32752;SDS011;19121;52.428;10.816;2022-08-19T10:41:12;9.02;;;4.40;;
32752;SDS011;19121;52.428;10.816;2022-08-19T10:43:39;6.22;;;5.00;;
32752;SDS011;19121;52.428;10.816;2022-08-19T10:46:06;8.20;;;4.78;;
32752;SDS011;19121;52.428;10.816;2022-08-19T10:48:33;10.90;;;5.30;;
32752;SDS011;19121;52.428;10.816;2022-08-19T10:50:59;6.55;;;5.18;;
32752;SDS011;19121;52.428;10.816;2022-08-19T10:53:43;8.38;;;5.25;;
32752;SDS011;19121;52.428;10.816;2022-08-19T10:56:09;5.97;;;4.20;;
32752;SDS011;19121;52.428;10.816;2022-08-19T10:58:53;7.75;;;4.60;;
32752;SDS011;19121;52.428;10.816;2022-08-19T11:01:19;6.65;;;4.75;;
32752;SDS011;19121;52.428;10.816;2022-08-19T11:03:45;8.43;;;3.63;;
32752;SDS011;19121;52.428;10.816;2022-08-19T11:06:10;5.38;;;3.17;;
32752;SDS011;19121;52.428;10.816;2022-08-19T11:08:37;5.32;;;4.45;;
32752;SDS011;19121;52.428;10.816;2022-08-19T11:11:03;8.90;;;5.47;;
32752;SDS011;19121;52.428;10.816;2022-08-19T11:13:31;7.53;;;5.10;;
32752;SDS011;19121;52.428;10.816;2022-08-19T11:18:40;6.63;;;5.10;;
32752;SDS011;19121;52.428;10.816;2022-08-19T11:21:09;8.55;;;5.60;;
32752;SDS011;19121;52.428;10.816;2022-08-19T11:23:42;6.97;;;5.10;;
32752;SDS011;19121;52.428;10.816;2022-08-19T11:26:08;10.68;;;5.45;;
32752;SDS011;19121;52.428;10.816;2022-08-19T11:28:34;9.07;;;6.20;;
32752;SDS011;19121;52.428;10.816;2022-08-19T11:31:00;6.90;;;5.53;;
32752;SDS011;19121;52.428;10.816;2022-08-19T11:33:26;7.43;;;5.53;;
32752;SDS011;19121;52.428;10.816;2022-08-19T11:35:52;5.55;;;4.93;;
32752;SDS011;19121;52.428;10.816;2022-08-19T11:38:18;7.70;;;4.03;;
32752;SDS011;19121;52.428;10.816;2022-08-19T11:40:43;7.65;;;4.45;;
32752;SDS011;19121;52.428;10.816;2022-08-19T11:43:09;6.97;;;5.05;;
32752;SDS011;19121;52.428;10.816;2022-08-19T11:45:34;5.57;;;4.85;;
32752;SDS011;19121;52.428;10.816;2022-08-19T11:48:01;5.13;;;3.70;;
32752;SDS011;19121;52.428;10.816;2022-08-19T11:50:27;6.22;;;4.22;;
32752;SDS011;19121;52.428;10.816;2022-08-19T11:52:53;7.55;;;5.05;;
32752;SDS011;19121;52.428;10.816;2022-08-19T11:55:20;7.53;;;4.57;;
32752;SDS011;19121;52.428;10.816;2022-08-19T11:57:45;6.35;;;5.18;;
32752;SDS011;19121;52.428;10.816;2022-08-19T12:00:11;5.55;;;3.92;;
32752;SDS011;19121;52.428;10.816;2022-08-19T12:02:38;6.22;;;4.78;;
32752;SDS011;19121;52.428;10.816;2022-08-19T12:05:04;5.55;;;4.15;;
32752;SDS011;19121;52.428;10.816;2022-08-19T12:07:30;4.50;;;3.92;;
32752;SDS011;19121;52.428;10.816;2022-08-19T12:09:58;7.10;;;5.18;;
32752;SDS011;19121;52.428;10.816;2022-08-19T12:12:24;5.78;;;4.13;;
32752;SDS011;19121;52.428;10.816;2022-08-19T12:14:49;3.90;;;3.60;;
32752;SDS011;19121;52.428;10.816;2022-08-19T12:17:21;5.03;;;4.10;;
32752;SDS011;19121;52.428;10.816;2022-08-19T12:19:50;4.88;;;3.58;;
32752;SDS011;19121;52.428;10.816;2022-08-19T12:22:16;6.82;;;4.18;;
32752;SDS011;19121;52.428;10.816;2022-08-19T12:24:42;8.50;;;4.13;;
32752;SDS011;19121;52.428;10.816;2022-08-19T12:27:07;4.82;;;3.15;;
32752;SDS011;19121;52.428;10.816;2022-08-19T12:29:32;4.03;;;3.50;;
32752;SDS011;19121;52.428;10.816;2022-08-19T12:31:58;4.68;;;4.13;;
32752;SDS011;19121;52.428;10.816;2022-08-19T12:34:27;4.25;;;3.80;;
32752;SDS011;19121;52.428;10.816;2022-08-19T12:36:55;6.22;;;3.75;;
32752;SDS011;19121;52.428;10.816;2022-08-19T12:39:21;4.68;;;3.90;;
32752;SDS011;19121;52.428;10.816;2022-08-19T12:41:47;4.55;;;4.15;;
32752;SDS011;19121;52.428;10.816;2022-08-19T12:44:13;5.22;;;3.90;;
32752;SDS011;19121;52.428;10.816;2022-08-19T12:46:39;7.28;;;4.68;;
32752;SDS011;19121;52.428;10.816;2022-08-19T12:49:04;5.28;;;4.32;;
32752;SDS011;19121;52.428;10.816;2022-08-19T12:51:30;7.78;;;4.10;;
32752;SDS011;19121;52.428;10.816;2022-08-19T12:53:56;4.70;;;3.95;;
32752;SDS011;19121;52.428;10.816;2022-08-19T12:56:22;9.95;;;4.53;;
32752;SDS011;19121;52.428;10.816;2022-08-19T12:58:47;4.97;;;3.92;;
32752;SDS011;19121;52.428;10.816;2022-08-19T13:01:15;5.07;;;4.25;;
32752;SDS011;19121;52.428;10.816;2022-08-19T13:03:41;4.63;;;4.03;;
32752;SDS011;19121;52.428;10.816;2022-08-19T13:06:08;6.55;;;3.83;;
32752;SDS011;19121;52.428;10.816;2022-08-19T13:08:34;4.75;;;3.85;;
32752;SDS011;19121;52.428;10.816;2022-08-19T13:11:10;5.82;;;4.40;;
32752;SDS011;19121;52.428;10.816;2022-08-19T13:13:38;5.28;;;4.13;;
32752;SDS011;19121;52.428;10.816;2022-08-19T13:16:06;6.25;;;4.22;;
32752;SDS011;19121;52.428;10.816;2022-08-19T13:18:32;5.10;;;4.38;;
32752;SDS011;19121;52.428;10.816;2022-08-19T13:21:01;4.80;;;3.88;;
32752;SDS011;19121;52.428;10.816;2022-08-19T13:23:29;3.60;;;3.30;;
32752;SDS011;19121;52.428;10.816;2022-08-19T13:25:56;4.25;;;3.42;;
32752;SDS011;19121;52.428;10.816;2022-08-19T13:28:22;5.10;;;3.22;;
32752;SDS011;19121;52.428;10.816;2022-08-19T13:30:48;3.72;;;3.05;;
32752;SDS011;19121;52.428;10.816;2022-08-19T13:33:32;10.02;;;4.63;;
32752;SDS011;19121;52.428;10.816;2022-08-19T13:35:58;4.18;;;3.47;;
32752;SDS011;19121;52.428;10.816;2022-08-19T13:38:26;5.47;;;3.45;;
32752;SDS011;19121;52.428;10.816;2022-08-19T13:40:53;8.30;;;4.13;;
32752;SDS011;19121;52.428;10.816;2022-08-19T13:43:21;4.28;;;3.78;;
32752;SDS011;19121;52.428;10.816;2022-08-19T13:45:51;4.32;;;3.92;;
32752;SDS011;19121;52.428;10.816;2022-08-19T13:48:20;4.72;;;4.05;;
32752;SDS011;19121;52.428;10.816;2022-08-19T13:50:46;4.20;;;3.80;;
32752;SDS011;19121;52.428;10.816;2022-08-19T13:53:13;5.85;;;4.15;;
32752;SDS011;19121;52.428;10.816;2022-08-19T13:55:39;4.88;;;4.20;;
32752;SDS011;19121;52.428;10.816;2022-08-19T13:58:07;6.45;;;3.33;;
32752;SDS011;19121;52.428;10.816;2022-08-19T14:00:35;3.83;;;3.28;;
32752;SDS011;19121;52.428;10.816;2022-08-19T14:03:03;4.50;;;3.65;;
32752;SDS011;19121;52.428;10.816;2022-08-19T14:05:29;5.57;;;3.05;;
32752;SDS011;19121;52.428;10.816;2022-08-19T14:07:55;3.58;;;3.25;;
32752;SDS011;19121;52.428;10.816;2022-08-19T14:10:22;4.63;;;3.60;;
32752;SDS011;19121;52.428;10.816;2022-08-19T14:12:48;3.92;;;3.58;;
32752;SDS011;19121;52.428;10.816;2022-08-19T14:15:14;4.25;;;3.22;;
32752;SDS011;19121;52.428;10.816;2022-08-19T14:17:43;3.83;;;3.42;;
32752;SDS011;19121;52.428;10.816;2022-08-19T14:20:11;3.13;;;2.83;;
32752;SDS011;19121;52.428;10.816;2022-08-19T14:22:39;3.92;;;3.50;;
32752;SDS011;19121;52.428;10.816;2022-08-19T14:25:06;4.30;;;3.72;;
32752;SDS011;19121;52.428;10.816;2022-08-19T14:27:34;4.20;;;3.80;;
32752;SDS011;19121;52.428;10.816;2022-08-19T14:30:01;3.78;;;3.47;;
32752;SDS011;19121;52.428;10.816;2022-08-19T14:32:28;4.05;;;2.78;;
32752;SDS011;19121;52.428;10.816;2022-08-19T14:34:53;3.42;;;2.97;;
32752;SDS011;19121;52.428;10.816;2022-08-19T14:37:19;3.88;;;3.55;;
32752;SDS011;19121;52.428;10.816;2022-08-19T14:39:45;4.72;;;3.25;;
32752;SDS011;19121;52.428;10.816;2022-08-19T14:42:11;5.32;;;3.40;;